Russian Mission, Alaska
Current Conditions -  °F | °C
As of 4:56 PM on Sunday 23 Nov 2014 (Local Time) from PARS Reporting Station
Clear Clear  
Wind Chill: 12°   Ceiling: Unl
Heat Index: 12°   Visibility: 10mi
Dew Point:   Wind: 0mph
Humidity: 77%   Direction: NA
Pressure: 29.51"   Gusts: NA
Location:  61.78°N, 161.32°W
Report Text: PARS 240156Z AUTO 00000KT 10SM CLR M11/M14 A2951 RMK AO2 TSNO T11111144 SLP999 $
Loading
Personal Weather Stations






























Interactive Weather Map New forecast layout! Learn more

10-Day Weather Forecast

Advertisements
Track Severe Weather on mobile